Westvale, New York
Current Conditions -  °F | °C
As of 4:54 AM on Monday 26 Jan 2015 (Local Time) from KSYR Reporting Station
Broken Clouds Broken Clouds  
Wind Chill: -7°   Ceiling: 12000
Heat Index:   Visibility: 10mi
Dew Point: -2°   Wind: 6mph
Humidity: 76%   Direction: 80°E
Pressure: 30.04"   Gusts: NA
Location:  43.0396°N, 76.2224°W
Report Text: KSYR 260954Z 08005KT 10SM BKN120 M16/M19 A3004 RMK AO2 SLP177 T11561189 $
Loading
Personal Weather Stations






























Interactive Weather Map New forecast layout! Learn more

10-Day Weather Forecast

Advertisements
Track Severe Weather on mobile